createdAt,value
2018-10-12T00:00:20.096Z,19.10
2018-10-12T00:02:55.281Z,19.20
2018-10-12T00:05:29.677Z,19.20
2018-10-12T00:08:04.335Z,19.20
2018-10-12T00:10:38.727Z,19.20
2018-10-12T00:13:13.740Z,19.10
2018-10-12T00:15:48.607Z,19.10
2018-10-12T00:18:22.947Z,19.10
2018-10-12T00:20:58.027Z,19.10
2018-10-12T00:23:33.155Z,19.10
2018-10-12T00:26:08.343Z,19.10
2018-10-12T00:28:44.000Z,18.80
2018-10-12T00:31:18.904Z,19.00
2018-10-12T00:33:54.259Z,19.00
2018-10-12T00:36:28.713Z,19.00
2018-10-12T00:39:04.613Z,19.00
2018-10-12T00:41:38.943Z,18.80
2018-10-12T00:44:13.935Z,18.90
2018-10-12T00:46:48.563Z,19.00
2018-10-12T00:49:22.877Z,19.00
2018-10-12T00:51:57.687Z,18.90
2018-10-12T00:54:33.815Z,19.00
2018-10-12T00:58:33.905Z,19.00
2018-10-12T01:01:08.740Z,19.10
2018-10-12T01:03:43.056Z,18.90
2018-10-12T01:06:17.861Z,19.00
2018-10-12T01:08:52.290Z,19.10
2018-10-12T01:11:26.912Z,19.10
2018-10-12T01:14:01.912Z,19.20
2018-10-12T01:16:36.647Z,19.30
2018-10-12T01:19:12.028Z,19.30
2018-10-12T01:21:47.464Z,19.30
2018-10-12T01:24:21.843Z,19.20
2018-10-12T01:26:56.248Z,19.30
2018-10-12T01:29:31.744Z,19.10
2018-10-12T01:32:06.671Z,19.10
2018-10-12T01:34:41.934Z,18.90
2018-10-12T01:37:16.644Z,18.90
2018-10-12T01:39:51.940Z,19.00
2018-10-12T01:42:26.441Z,19.00
2018-10-12T01:45:00.771Z,19.10
2018-10-12T01:47:35.081Z,19.10
2018-10-12T01:50:09.645Z,19.10
2018-10-12T01:52:44.888Z,19.10
2018-10-12T01:55:20.284Z,19.00
2018-10-12T01:57:55.559Z,19.10
2018-10-12T02:00:29.964Z,19.20
2018-10-12T02:03:04.373Z,19.20
2018-10-12T02:05:38.644Z,19.20
2018-10-12T02:08:12.990Z,19.20
2018-10-12T02:10:47.344Z,19.20
2018-10-12T02:13:22.254Z,19.30
2018-10-12T02:15:57.235Z,19.20
2018-10-12T02:18:32.529Z,19.30
2018-10-12T02:21:07.940Z,19.30
2018-10-12T02:23:42.295Z,19.30
2018-10-12T02:26:16.664Z,19.20
2018-10-12T02:28:52.037Z,19.30
2018-10-12T02:31:27.280Z,19.30
2018-10-12T02:34:02.455Z,19.30
2018-10-12T02:36:36.940Z,19.30
2018-10-12T02:39:13.808Z,19.20
2018-10-12T02:41:48.299Z,19.20
2018-10-12T02:44:22.651Z,19.10
2018-10-12T02:46:57.151Z,19.20
2018-10-12T02:49:31.655Z,19.20
2018-10-12T02:52:06.112Z,19.30
2018-10-12T02:54:41.560Z,19.30
2018-10-12T02:57:16.848Z,19.20
2018-10-12T02:59:51.439Z,19.00
2018-10-12T03:02:25.847Z,18.70
2018-10-12T03:05:00.736Z,18.70
2018-10-12T03:07:35.063Z,18.90
2018-10-12T03:10:09.447Z,18.90
2018-10-12T03:12:44.472Z,19.00
2018-10-12T03:15:19.490Z,19.10
2018-10-12T03:24:52.525Z,19.10
2018-10-12T03:27:27.086Z,18.70
2018-10-12T03:30:02.583Z,18.90
2018-10-12T03:32:37.580Z,19.10
2018-10-12T03:35:12.535Z,19.30
2018-10-12T03:37:52.765Z,19.30
2018-10-12T03:40:27.348Z,19.30
2018-10-12T03:43:02.277Z,19.30
2018-10-12T03:45:36.688Z,19.20
2018-10-12T03:48:11.262Z,19.10
2018-10-12T03:50:45.579Z,19.10
2018-10-12T03:53:21.016Z,19.00
2018-10-12T03:55:56.085Z,18.90
2018-10-12T03:58:30.791Z,18.70
2018-10-12T04:01:05.224Z,18.70
2018-10-12T04:03:39.775Z,18.70
2018-10-12T04:06:14.291Z,18.70
2018-10-12T04:08:48.570Z,18.70
2018-10-12T04:14:18.658Z,18.70
2018-10-12T04:16:53.021Z,18.70
2018-10-12T04:19:28.089Z,18.70
2018-10-12T04:22:03.301Z,18.60
2018-10-12T04:24:37.757Z,18.50
2018-10-12T04:27:12.267Z,18.50
2018-10-12T04:29:47.637Z,18.50
2018-10-12T04:32:22.705Z,18.30
2018-10-12T04:34:57.973Z,18.20
2018-10-12T04:37:32.279Z,18.20
2018-10-12T04:40:15.971Z,18.10
2018-10-12T04:42:50.268Z,18.10
2018-10-12T04:45:24.696Z,18.00
2018-10-12T04:47:59.255Z,18.00
2018-10-12T04:50:34.528Z,18.10
2018-10-12T04:53:09.374Z,18.10
2018-10-12T04:55:45.012Z,18.10
2018-10-12T04:58:19.384Z,18.00
2018-10-12T05:01:01.044Z,17.90
2018-10-12T05:03:35.896Z,17.90
2018-10-12T05:06:10.354Z,17.80
2018-10-12T05:08:44.803Z,17.80
2018-10-12T05:11:19.876Z,17.80
2018-10-12T05:13:54.979Z,17.80
2018-10-12T05:16:29.289Z,17.70
2018-10-12T05:19:03.656Z,17.70
2018-10-12T05:28:41.097Z,17.50
2018-10-12T05:31:16.404Z,16.80
2018-10-12T05:33:51.940Z,16.90
2018-10-12T05:36:26.233Z,16.80
2018-10-12T05:39:01.517Z,16.90
2018-10-12T05:41:36.571Z,17.00
2018-10-12T05:44:11.098Z,17.20
2018-10-12T05:46:46.711Z,17.20
2018-10-12T05:49:33.289Z,17.30
2018-10-12T05:52:07.839Z,17.30
2018-10-12T05:54:43.003Z,17.20
2018-10-12T05:57:18.496Z,17.20
2018-10-12T05:59:52.976Z,17.20
2018-10-12T06:02:28.504Z,17.20
2018-10-12T06:05:02.877Z,17.30
2018-10-12T06:07:38.170Z,17.30
2018-10-12T06:10:12.722Z,17.40
2018-10-12T06:12:47.878Z,17.40
2018-10-12T06:15:23.192Z,17.20
2018-10-12T06:17:57.931Z,17.00
2018-10-12T06:20:33.547Z,17.20
2018-10-12T06:23:07.987Z,17.40
2018-10-12T06:25:42.428Z,17.70
2018-10-12T06:28:17.416Z,17.90
2018-10-12T06:30:52.455Z,18.10
2018-10-12T06:33:27.420Z,18.30
2018-10-12T06:36:02.880Z,18.50
2018-10-12T06:38:37.720Z,18.60
2018-10-12T06:41:12.709Z,18.80
2018-10-12T06:43:47.180Z,18.90
2018-10-12T06:46:22.730Z,19.10
2018-10-12T06:48:57.172Z,19.20
2018-10-12T06:51:31.595Z,19.30
2018-10-12T06:54:07.052Z,19.40
2018-10-12T06:56:43.204Z,19.60
2018-10-12T06:59:17.660Z,19.80
2018-10-12T07:01:52.526Z,19.90
2018-10-12T07:04:26.891Z,20.00
2018-10-12T07:07:01.857Z,20.10
2018-10-12T07:09:36.235Z,19.90
2018-10-12T07:12:11.710Z,20.20
2018-10-12T07:14:46.903Z,19.90
2018-10-12T07:17:21.241Z,19.80
2018-10-12T07:19:56.064Z,19.80
2018-10-12T07:22:31.177Z,20.20
2018-10-12T07:25:05.814Z,20.60
2018-10-12T07:27:40.518Z,20.80
2018-10-12T07:30:16.608Z,20.60
2018-10-12T07:32:51.689Z,20.60
2018-10-12T07:35:26.823Z,20.50
2018-10-12T07:38:02.260Z,20.00
2018-10-12T07:40:37.206Z,20.40
2018-10-12T07:43:12.062Z,20.70
2018-10-12T07:45:47.002Z,21.00
2018-10-12T07:48:22.100Z,21.10
2018-10-12T07:50:57.489Z,21.30
2018-10-12T07:53:32.623Z,21.70
2018-10-12T07:56:08.088Z,21.80
2018-10-12T07:58:42.523Z,22.10
2018-10-12T08:01:17.048Z,22.20
2018-10-12T08:03:52.332Z,22.10
2018-10-12T08:06:26.940Z,22.50
2018-10-12T08:09:01.185Z,23.00
2018-10-12T08:11:36.088Z,22.90
2018-10-12T08:14:11.632Z,23.30
2018-10-12T08:16:46.730Z,23.60
2018-10-12T08:19:21.036Z,23.90
2018-10-12T08:21:56.237Z,24.30
2018-10-12T08:24:30.683Z,24.50
2018-10-12T08:27:05.739Z,24.70
2018-10-12T08:29:49.504Z,24.30
2018-10-12T08:32:24.757Z,24.50
2018-10-12T08:35:07.065Z,24.80
2018-10-12T08:37:41.575Z,25.00
2018-10-12T08:40:16.489Z,25.30
2018-10-12T08:42:51.641Z,25.20
2018-10-12T08:45:26.305Z,25.40
2018-10-12T08:48:01.537Z,25.40
2018-10-12T08:50:36.737Z,25.40
2018-10-12T08:55:33.875Z,25.20
2018-10-12T08:58:08.214Z,24.80
2018-10-12T09:00:44.168Z,25.00
2018-10-12T09:03:18.742Z,25.30
2018-10-12T09:05:53.265Z,25.70
2018-10-12T09:08:27.769Z,25.90
2018-10-12T09:11:02.266Z,26.00
2018-10-12T09:13:40.245Z,26.00
2018-10-12T09:16:14.743Z,26.00
2018-10-12T09:18:49.146Z,25.80
2018-10-12T09:21:24.235Z,25.70
2018-10-12T09:23:58.747Z,25.70
2018-10-12T09:26:33.089Z,25.70
2018-10-12T09:29:08.071Z,25.70
2018-10-12T09:31:43.148Z,25.70
2018-10-12T09:34:18.479Z,25.70
2018-10-12T09:36:53.065Z,25.80
2018-10-12T09:39:28.336Z,25.60
2018-10-12T09:42:03.715Z,25.70
2018-10-12T09:44:39.629Z,25.70
2018-10-12T09:47:14.447Z,25.50
2018-10-12T09:49:48.700Z,25.20
2018-10-12T09:52:23.312Z,25.10
2018-10-12T09:54:57.774Z,25.20
2018-10-12T09:57:35.211Z,25.50
2018-10-12T10:00:14.950Z,25.50
2018-10-12T10:02:54.841Z,25.50
2018-10-12T10:05:29.156Z,25.20
2018-10-12T10:08:04.212Z,25.40
2018-10-12T10:10:38.644Z,25.60
2018-10-12T10:13:13.748Z,25.50
2018-10-12T10:15:48.781Z,25.50
2018-10-12T10:18:23.159Z,25.50
2018-10-12T10:20:58.308Z,25.60
2018-10-12T10:23:32.914Z,25.60
2018-10-12T10:26:07.643Z,25.70
2018-10-12T10:35:52.147Z,26.00
2018-10-12T10:38:27.066Z,25.50
2018-10-12T10:41:02.101Z,25.70
2018-10-12T10:43:37.086Z,26.00
2018-10-12T10:46:11.463Z,26.30
2018-10-12T10:48:46.071Z,26.50
2018-10-12T10:51:20.473Z,26.60
2018-10-12T10:53:55.499Z,26.80
2018-10-12T10:56:30.956Z,26.90
2018-10-12T10:59:05.442Z,26.90
2018-10-12T11:01:40.876Z,26.90
2018-10-12T11:04:15.423Z,26.90
2018-10-12T11:06:49.758Z,26.80
2018-10-12T11:09:25.502Z,27.00
2018-10-12T11:12:03.822Z,27.30
2018-10-12T11:14:38.813Z,27.40
2018-10-12T11:17:13.255Z,27.50
2018-10-12T11:19:47.678Z,27.50
2018-10-12T11:22:22.639Z,27.80
2018-10-12T11:24:57.407Z,28.00
2018-10-12T11:27:31.766Z,28.50
2018-10-12T11:30:07.088Z,28.80
2018-10-12T11:32:42.227Z,28.60
2018-10-12T11:35:17.401Z,28.80
2018-10-12T11:37:54.575Z,28.80
2018-10-12T11:40:30.032Z,28.90
2018-10-12T11:43:16.632Z,29.00
2018-10-12T11:45:50.940Z,29.10
2018-10-12T11:48:25.467Z,29.50
2018-10-12T11:51:00.323Z,29.90
2018-10-12T11:53:34.731Z,29.70
2018-10-12T11:56:09.808Z,29.00
2018-10-12T11:58:44.283Z,29.50
2018-10-12T12:01:18.756Z,30.40
2018-10-12T12:03:53.540Z,30.80
2018-10-12T12:06:28.145Z,31.30
2018-10-12T12:09:02.504Z,31.30
2018-10-12T12:11:37.005Z,29.70
2018-10-12T12:14:12.244Z,28.90
2018-10-12T12:16:47.685Z,29.20
2018-10-12T12:19:22.944Z,29.20
2018-10-12T12:21:58.376Z,29.20
2018-10-12T12:24:32.733Z,29.40
2018-10-12T12:27:07.173Z,29.10
2018-10-12T12:29:42.474Z,28.80
2018-10-12T12:32:17.432Z,28.70
2018-10-12T12:34:52.595Z,28.80
2018-10-12T12:37:26.888Z,28.90
2018-10-12T12:40:01.704Z,28.80
2018-10-12T12:42:36.052Z,28.70
2018-10-12T12:45:10.971Z,28.60
2018-10-12T12:47:45.645Z,28.70
2018-10-12T12:50:20.632Z,28.70
2018-10-12T12:52:55.139Z,28.10
2018-10-12T12:58:10.341Z,27.50
2018-10-12T13:00:52.120Z,27.30
2018-10-12T13:03:27.213Z,27.40
2018-10-12T13:06:02.236Z,27.90
2018-10-12T13:08:37.347Z,28.30
2018-10-12T13:11:17.134Z,28.70
2018-10-12T13:13:52.448Z,28.90
2018-10-12T13:16:26.968Z,29.50
2018-10-12T13:19:01.370Z,29.60
2018-10-12T13:21:36.434Z,29.60
2018-10-12T13:24:11.531Z,29.50
2018-10-12T13:26:46.365Z,29.30
2018-10-12T13:29:21.300Z,29.10
2018-10-12T13:31:56.517Z,29.30
2018-10-12T13:34:31.768Z,29.30
2018-10-12T13:37:06.196Z,29.00
2018-10-12T13:39:41.251Z,28.80
2018-10-12T13:42:15.556Z,29.10
2018-10-12T13:44:50.541Z,29.30
2018-10-12T13:47:25.120Z,28.60
2018-10-12T13:50:00.209Z,28.80
2018-10-12T13:52:35.265Z,28.80
2018-10-12T13:55:09.753Z,28.90
2018-10-12T13:57:44.773Z,28.90
2018-10-12T14:00:19.198Z,28.80
2018-10-12T14:02:54.289Z,28.80
2018-10-12T14:05:28.626Z,28.80
2018-10-12T14:08:02.936Z,28.40
2018-10-12T14:10:37.471Z,28.00
2018-10-12T14:13:12.371Z,28.10
2018-10-12T14:15:48.387Z,28.20
2018-10-12T14:18:23.148Z,28.40
2018-10-12T14:20:58.803Z,28.40
2018-10-12T14:23:34.288Z,28.50
2018-10-12T14:26:16.701Z,28.60
2018-10-12T14:28:52.143Z,28.70
2018-10-12T14:31:27.246Z,28.90
2018-10-12T14:34:02.189Z,29.00
2018-10-12T14:36:37.650Z,29.00
2018-10-12T14:39:12.635Z,28.90
2018-10-12T14:41:47.071Z,28.80
2018-10-12T14:44:22.939Z,28.70
2018-10-12T14:46:58.764Z,28.80
2018-10-12T14:49:33.793Z,28.70
2018-10-12T14:52:08.268Z,28.30
2018-10-12T14:54:42.641Z,28.70
2018-10-12T14:57:19.728Z,28.90
2018-10-12T14:59:54.272Z,28.80
2018-10-12T15:02:29.268Z,29.10
2018-10-12T15:05:03.680Z,29.40
2018-10-12T15:07:38.846Z,29.30
2018-10-12T15:10:13.212Z,29.20
2018-10-12T15:12:48.083Z,29.30
2018-10-12T15:15:28.534Z,29.40
2018-10-12T15:18:03.120Z,29.60
2018-10-12T15:23:08.813Z,29.80
2018-10-12T15:25:44.019Z,29.40
2018-10-12T15:28:21.038Z,29.00
2018-10-12T15:30:56.016Z,29.40
2018-10-12T15:33:30.879Z,29.70
2018-10-12T15:36:05.856Z,29.80
2018-10-12T15:38:41.244Z,29.90
2018-10-12T15:41:15.516Z,30.00
2018-10-12T15:43:50.456Z,30.20
2018-10-12T15:46:24.947Z,30.30
2018-10-12T15:49:00.016Z,30.30
2018-10-12T15:51:34.561Z,30.20
2018-10-12T15:54:08.937Z,30.30
2018-10-12T15:56:44.371Z,30.50
2018-10-12T15:59:20.058Z,30.70
2018-10-12T16:01:55.093Z,30.80
2018-10-12T16:04:29.492Z,30.80
2018-10-12T16:07:04.449Z,30.50
2018-10-12T16:09:38.885Z,30.20
2018-10-12T16:12:13.962Z,29.80
2018-10-12T16:14:48.936Z,29.50
2018-10-12T16:17:23.174Z,29.30
2018-10-12T16:19:57.745Z,28.70
2018-10-12T16:23:57.571Z,28.50
2018-10-12T16:26:32.394Z,28.10
2018-10-12T16:29:07.542Z,27.60
2018-10-12T16:31:42.778Z,27.20
2018-10-12T16:34:18.019Z,27.30
2018-10-12T16:36:52.604Z,27.40
2018-10-12T16:39:27.908Z,27.30
2018-10-12T16:42:03.314Z,27.10
2018-10-12T16:44:38.593Z,27.00
2018-10-12T16:47:14.208Z,26.90
2018-10-12T16:49:49.450Z,26.70
2018-10-12T16:52:24.054Z,26.70
2018-10-12T16:56:25.585Z,26.40
2018-10-12T16:59:00.626Z,26.40
2018-10-12T17:01:36.956Z,26.00
2018-10-12T17:04:12.100Z,25.90
2018-10-12T17:06:48.556Z,25.80
2018-10-12T17:09:23.472Z,25.70
2018-10-12T17:11:59.040Z,25.60
2018-10-12T17:14:34.844Z,25.50
2018-10-12T17:17:10.382Z,25.50
2018-10-12T17:19:45.242Z,25.30
2018-10-12T17:22:20.756Z,25.20
2018-10-12T17:24:56.283Z,25.10
2018-10-12T17:27:30.886Z,25.10
2018-10-12T17:30:06.151Z,25.00
2018-10-12T17:32:41.308Z,24.90
2018-10-12T17:35:17.061Z,24.80
2018-10-12T17:37:54.533Z,24.70
2018-10-12T17:40:29.453Z,24.60
2018-10-12T17:43:08.944Z,24.60
2018-10-12T17:45:43.184Z,24.50
2018-10-12T17:48:18.575Z,24.40
2018-10-12T17:50:53.603Z,24.30
2018-10-12T17:53:27.964Z,24.20
2018-10-12T17:56:03.000Z,24.10
2018-10-12T17:58:37.484Z,24.00
2018-10-12T18:08:17.331Z,23.90
2018-10-12T18:10:51.983Z,23.40
2018-10-12T18:13:27.052Z,23.50
2018-10-12T18:16:02.064Z,23.50
2018-10-12T18:18:37.931Z,23.40
2018-10-12T18:21:13.276Z,23.40
2018-10-12T18:23:48.921Z,23.30
2018-10-12T18:26:24.051Z,23.30
2018-10-12T18:28:59.628Z,23.20
2018-10-12T18:31:35.392Z,23.20
2018-10-12T18:34:10.626Z,23.10
2018-10-12T18:36:46.148Z,23.10
2018-10-12T18:39:21.148Z,22.70
2018-10-12T18:41:55.495Z,22.70
2018-10-12T18:44:30.771Z,22.70
2018-10-12T18:47:05.804Z,22.80
2018-10-12T18:49:41.242Z,22.80
2018-10-12T18:52:15.678Z,22.80
2018-10-12T18:54:50.946Z,22.80
2018-10-12T18:57:26.365Z,22.70
2018-10-12T19:00:02.497Z,22.70
2018-10-12T19:02:36.874Z,22.60
2018-10-12T19:05:11.285Z,22.60
2018-10-12T19:07:46.135Z,22.50
2018-10-12T19:10:20.604Z,22.50
2018-10-12T19:12:55.104Z,22.40
2018-10-12T19:15:30.180Z,22.30
2018-10-12T19:18:04.541Z,22.20
2018-10-12T19:20:39.703Z,22.20
2018-10-12T19:23:14.780Z,22.20
2018-10-12T19:25:49.145Z,22.20
2018-10-12T19:28:28.704Z,22.10
2018-10-12T19:31:05.289Z,22.00
2018-10-12T19:33:40.349Z,21.90
2018-10-12T19:36:15.656Z,21.90
2018-10-12T19:38:50.913Z,21.90
2018-10-12T19:41:25.436Z,21.80
2018-10-12T19:44:00.484Z,21.80
2018-10-12T19:46:35.547Z,21.80
2018-10-12T19:49:10.746Z,21.70
2018-10-12T19:51:45.227Z,21.70
2018-10-12T19:54:19.722Z,21.60
2018-10-12T19:56:54.653Z,21.60
2018-10-12T19:59:29.021Z,21.50
2018-10-12T20:02:03.505Z,21.50
2018-10-12T20:04:39.213Z,21.50
2018-10-12T20:07:14.433Z,21.40
2018-10-12T20:09:48.793Z,21.40
2018-10-12T20:12:25.493Z,21.40
2018-10-12T20:15:01.089Z,21.30
2018-10-12T20:17:35.736Z,21.30
2018-10-12T20:20:10.160Z,21.20
2018-10-12T20:25:26.041Z,21.10
2018-10-12T20:28:01.280Z,21.00
2018-10-12T20:30:37.141Z,21.00
2018-10-12T20:33:12.322Z,21.00
2018-10-12T20:35:47.409Z,20.90
2018-10-12T20:38:22.581Z,20.80
2018-10-12T20:40:57.029Z,20.80
2018-10-12T20:43:32.540Z,20.70
2018-10-12T20:46:07.688Z,20.70
2018-10-12T20:48:42.799Z,20.70
2018-10-12T20:51:17.435Z,20.60
2018-10-12T20:53:51.746Z,20.60
